CMB811 Details

Departure: Daniel K Inouye International Airport (PHNL)
Arrival: Bucholz AAF Airport (PKWA) at N/A
Route: OPIHI2 CHOKO R584 MCFLY R584 MAZZA 1000N/17300E NDJ
Notes: USTRANSCOM CONTRACT FLIGHT | LIMITED FUEL AVBL TO NON-DOD ACFT


Current Weather Information
PHNL 230853Z 05009KT 10SM FEW024 FEW040 27/20 A3001 RMK AO2 SLP161 T02720200 50003
PKWA 230900Z AUTO 05006KT 10SM CLR 29/24 A2986 RMK AO2 T02880240